KPIA/PIA METAR and TAF weather

Enter ICAO airport designator
Station Type Date Time Source
KPIA METAR 2020/07/15 07:54 UTC NOAA

KPIA 150754Z 19006KT 10SM CLR 24/18 A2998 RMK AO2 SLP145 T02390178


Station Type Date Time Source
KPIA Decoded METAR 2020/07/15 07:54 UTC NOAA

GREATER PEORIA REGIONAL AIRPORT , IL, United States (KPIA) 40-40N 89-41W 205M
Jul 15, 2020 - 03:54 AM EDT / 2020.07.15 0754 UTC
Wind: from the S (190 degrees) at 7 MPH (6 KT):0
Visibility: 10 mile(s):0
Sky conditions: clear
Temperature: 75.0 F (23.9 C)
Dew Point: 64.0 F (17.8 C)
Relative Humidity: 68%
Pressure (altimeter): 29.98 in. Hg (1015 hPa)
ob: KPIA 150754Z 19006KT 10SM CLR 24/18 A2998 RMK AO2 SLP145 T02390178
cycle: 8

Station Type Date Time Source
KPIA TAF 2020/07/15 06:22 UTC NOAA

TAF KPIA 150520Z 1506/1606 16005KT P6SM BKN250
FM151500 18008KT P6SM VCSH SCT035 BKN120
FM152000 16009KT 6SM SHRA VCTS OVC035CB
FM160000 VRB04KT 5SM BR VCSH OVC017

Example: see airport list